Time;durP1;ratioP1;P1;durP2;ratioP2;P2;SDS_P1;SDS_P2;PMS_P1;PMS_P2;Temp;Humidity;BMP_temperature;BMP_pressure;BME280_temperature;BME280_humidity;BME280_pressure;Samples;Min_cycle;Max_cycle;Signal;HPM_P1;HPM_P2
2022/04/16 00:01:15;;;;;;;0.20;0.20;;;;;;;;;;5073241;28;20384;-60
2022/04/16 00:03:41;;;;;;;1.20;1.15;;;;;;;;;;5073345;28;20036;-60
2022/04/16 00:06:07;;;;;;;0.10;0.10;;;;;;;;;;5073478;28;20153;-60
2022/04/16 00:08:32;;;;;;;0.10;0.10;;;;;;;;;;5073088;28;20107;-60
2022/04/16 00:10:58;;;;;;;0.10;0.10;;;;;;;;;;5072668;28;20059;-60
2022/04/16 00:13:23;;;;;;;0.15;0.15;;;;;;;;;;5072674;28;20082;-60
2022/04/16 00:15:49;;;;;;;2.22;1.00;;;;;;;;;;5072814;28;20036;-61
2022/04/16 00:18:15;;;;;;;2.40;1.75;;;;;;;;;;5073045;28;20048;-61
2022/04/16 00:20:41;;;;;;;0.20;0.20;;;;;;;;;;5055051;28;20043;-60
2022/04/16 00:23:07;;;;;;;0.20;0.20;;;;;;;;;;5072727;28;20484;-61
2022/04/16 00:25:34;;;;;;;0.13;0.13;;;;;;;;;;5073042;28;20025;-60
2022/04/16 00:28:03;;;;;;;0.20;0.20;;;;;;;;;;5072795;28;20037;-60
2022/04/16 00:30:30;;;;;;;1.92;1.85;;;;;;;;;;5072931;28;20028;-60
2022/04/16 00:32:57;;;;;;;0.20;0.20;;;;;;;;;;5054890;28;20040;-60
2022/04/16 00:35:23;;;;;;;0.20;0.20;;;;;;;;;;5072846;28;20037;-60
2022/04/16 00:37:49;;;;;;;0.17;0.17;;;;;;;;;;5072520;28;20036;-60
2022/04/16 00:40:14;;;;;;;0.20;0.20;;;;;;;;;;5072687;28;20040;-61
2022/04/16 00:42:41;;;;;;;0.25;0.25;;;;;;;;;;5072681;28;20070;-60
2022/04/16 00:45:07;;;;;;;0.20;0.20;;;;;;;;;;5072479;28;20111;-60
2022/04/16 00:47:32;;;;;;;0.20;0.20;;;;;;;;;;5072891;28;20455;-61
2022/04/16 00:49:58;;;;;;;0.15;0.15;;;;;;;;;;5072529;28;20060;-59
2022/04/16 00:52:24;;;;;;;0.50;0.50;;;;;;;;;;5072396;28;20008;-60
2022/04/16 00:54:50;;;;;;;0.20;0.20;;;;;;;;;;5072441;28;20480;-60
2022/04/16 00:57:17;;;;;;;0.20;0.20;;;;;;;;;;5072333;28;20096;-60
2022/04/16 00:59:42;;;;;;;0.10;0.10;;;;;;;;;;5072748;28;20048;-60
2022/04/16 01:02:09;;;;;;;0.20;0.20;;;;;;;;;;5072446;28;20028;-60
2022/04/16 01:04:35;;;;;;;0.10;0.10;;;;;;;;;;5072400;28;20039;-60
2022/04/16 01:07:00;;;;;;;0.22;0.22;;;;;;;;;;5072236;28;20026;-60
2022/04/16 01:09:26;;;;;;;0.20;0.20;;;;;;;;;;5072236;28;20047;-60
2022/04/16 01:11:51;;;;;;;0.30;0.30;;;;;;;;;;5072250;28;20029;-60
2022/04/16 01:14:19;;;;;;;0.20;0.20;;;;;;;;;;5072168;28;20028;-60
2022/04/16 01:16:45;;;;;;;2.38;2.28;;;;;;;;;;5072072;28;20032;-60
2022/04/16 01:19:11;;;;;;;0.20;0.20;;;;;;;;;;5072284;28;20495;-60
2022/04/16 01:21:36;;;;;;;2.95;2.80;;;;;;;;;;5072064;28;20108;-60
2022/04/16 01:24:02;;;;;;;0.10;0.10;;;;;;;;;;5072304;28;20040;-61
2022/04/16 01:26:29;;;;;;;0.20;0.20;;;;;;;;;;5075277;28;20078;-60
2022/04/16 01:28:54;;;;;;;0.20;0.20;;;;;;;;;;5076082;28;20514;-60
2022/04/16 01:31:20;;;;;;;0.10;0.10;;;;;;;;;;5076083;28;20060;-60
2022/04/16 01:33:45;;;;;;;0.25;0.25;;;;;;;;;;5075656;28;20483;-60
2022/04/16 01:36:12;;;;;;;0.30;0.30;;;;;;;;;;5075427;28;20434;-61
2022/04/16 01:38:37;;;;;;;0.20;0.20;;;;;;;;;;5075507;28;20044;-60
2022/04/16 01:41:03;;;;;;;0.30;0.30;;;;;;;;;;5075524;28;20032;-60
2022/04/16 01:43:29;;;;;;;0.20;0.20;;;;;;;;;;5075214;28;20496;-60
2022/04/16 01:45:55;;;;;;;0.32;0.32;;;;;;;;;;5057445;28;20430;-60
2022/04/16 01:48:22;;;;;;;0.20;0.20;;;;;;;;;;5075503;28;20056;-60
2022/04/16 01:50:48;;;;;;;0.30;0.30;;;;;;;;;;5075302;28;20384;-61
2022/04/16 01:53:14;;;;;;;0.15;0.15;;;;;;;;;;5075279;28;20024;-60
2022/04/16 01:55:40;;;;;;;0.30;0.30;;;;;;;;;;5057389;28;20044;-60
2022/04/16 01:58:06;;;;;;;0.20;0.20;;;;;;;;;;5057298;28;20032;-60
2022/04/16 02:00:33;;;;;;;0.20;0.20;;;;;;;;;;5075321;28;20143;-60
2022/04/16 02:02:59;;;;;;;0.20;0.20;;;;;;;;;;5075031;28;20369;-60
2022/04/16 02:05:25;;;;;;;0.10;0.10;;;;;;;;;;5057314;28;20086;-60
2022/04/16 02:07:50;;;;;;;13.25;12.13;;;;;;;;;;5074993;28;20035;-60
2022/04/16 02:10:16;;;;;;;0.20;0.20;;;;;;;;;;5057258;28;20082;-61
2022/04/16 02:12:42;;;;;;;0.20;0.20;;;;;;;;;;5074993;28;20099;-60
2022/04/16 02:15:08;;;;;;;0.20;0.20;;;;;;;;;;5074916;28;20043;-60
2022/04/16 02:17:34;;;;;;;0.10;0.10;;;;;;;;;;5074828;28;20452;-60
2022/04/16 02:19:59;;;;;;;0.10;0.10;;;;;;;;;;5074827;28;20056;-61
2022/04/16 02:22:25;;;;;;;0.20;0.20;;;;;;;;;;5074689;28;20491;-61
2022/04/16 02:24:51;;;;;;;6.18;5.93;;;;;;;;;;5057167;28;20100;-61
2022/04/16 02:27:17;;;;;;;0.10;0.10;;;;;;;;;;5074908;28;20468;-60
2022/04/16 02:29:43;;;;;;;0.20;0.20;;;;;;;;;;5074799;28;20032;-60
2022/04/16 02:32:08;;;;;;;0.20;0.20;;;;;;;;;;5074676;28;20060;-60
2022/04/16 02:34:34;;;;;;;0.20;0.20;;;;;;;;;;5074688;28;20087;-60
2022/04/16 02:36:59;;;;;;;0.20;0.20;;;;;;;;;;5074200;28;20037;-60
2022/04/16 02:39:25;;;;;;;0.20;0.20;;;;;;;;;;5074655;28;20438;-60
2022/04/16 02:41:51;;;;;;;0.20;0.20;;;;;;;;;;5074603;28;20035;-60
2022/04/16 02:47:06;;;;;;;0.20;0.20;;;;;;;;;;5074577;28;20082;-60
2022/04/16 02:49:34;;;;;;;0.20;0.20;;;;;;;;;;5074370;28;20422;-60
2022/04/16 02:51:59;;;;;;;0.20;0.20;;;;;;;;;;5056725;28;20127;-60
2022/04/16 02:54:25;;;;;;;0.17;0.17;;;;;;;;;;5056567;28;20120;-60
2022/04/16 02:56:51;;;;;;;1.92;1.85;;;;;;;;;;5074589;28;20064;-60
2022/04/16 02:59:16;;;;;;;0.20;0.20;;;;;;;;;;5056431;28;20036;-60
2022/04/16 03:01:42;;;;;;;0.20;0.20;;;;;;;;;;5073433;28;20039;-61
2022/04/16 03:04:07;;;;;;;0.13;0.13;;;;;;;;;;5069569;28;20028;-61
2022/04/16 03:06:33;;;;;;;0.20;0.20;;;;;;;;;;5070545;28;20041;-61
2022/04/16 03:08:58;;;;;;;0.20;0.20;;;;;;;;;;5070115;28;20058;-60
2022/04/16 03:11:24;;;;;;;0.20;0.20;;;;;;;;;;5069817;28;20032;-62
2022/04/16 03:13:49;;;;;;;0.28;0.28;;;;;;;;;;5070236;28;20111;-60
2022/04/16 03:18:58;;;;;;;0.20;0.20;;;;;;;;;;5070028;28;20056;-61
2022/04/16 03:21:24;;;;;;;0.20;0.20;;;;;;;;;;5070204;28;20021;-60
2022/04/16 03:23:49;;;;;;;0.20;0.20;;;;;;;;;;5069971;28;20589;-60
2022/04/16 03:26:15;;;;;;;0.20;0.20;;;;;;;;;;5069789;28;20472;-61
2022/04/16 03:28:41;;;;;;;0.15;0.15;;;;;;;;;;5069937;28;20573;-60
2022/04/16 03:31:06;;;;;;;0.20;0.20;;;;;;;;;;5069845;28;20081;-61
2022/04/16 03:33:32;;;;;;;0.20;0.20;;;;;;;;;;5069742;28;20029;-60
2022/04/16 03:35:58;;;;;;;0.20;0.20;;;;;;;;;;5069710;28;20033;-60
2022/04/16 03:38:24;;;;;;;0.20;0.20;;;;;;;;;;5069541;28;20115;-60
2022/04/16 03:40:50;;;;;;;0.20;0.20;;;;;;;;;;5069688;28;20552;-60
2022/04/16 03:43:18;;;;;;;0.10;0.10;;;;;;;;;;5051671;28;20032;-60
2022/04/16 03:45:43;;;;;;;0.20;0.20;;;;;;;;;;5069264;28;20035;-61
2022/04/16 03:48:09;;;;;;;0.20;0.20;;;;;;;;;;5068780;28;20387;-60
2022/04/16 03:50:35;;;;;;;0.20;0.20;;;;;;;;;;5069692;28;20025;-60
2022/04/16 03:53:01;;;;;;;0.20;0.20;;;;;;;;;;5051526;28;20029;-60
2022/04/16 04:00:57;;;;;;;0.20;0.20;;;;;;;;;;5069168;28;20036;-60
2022/04/16 04:03:22;;;;;;;0.20;0.20;;;;;;;;;;5069268;28;20385;-60
2022/04/16 04:05:49;;;;;;;0.15;0.15;;;;;;;;;;5069342;28;20044;-60
2022/04/16 04:08:15;;;;;;;0.20;0.20;;;;;;;;;;5068777;28;20029;-60
2022/04/16 04:10:41;;;;;;;0.20;0.20;;;;;;;;;;5068837;28;20089;-60
2022/04/16 04:13:06;;;;;;;0.20;0.20;;;;;;;;;;5068892;28;20108;-60
2022/04/16 04:15:32;;;;;;;0.20;0.20;;;;;;;;;;5068892;28;20040;-60
2022/04/16 04:18:01;;;;;;;0.20;0.20;;;;;;;;;;5069130;28;20028;-61
2022/04/16 04:20:29;;;;;;;0.20;0.20;;;;;;;;;;5068596;28;20040;-60
2022/04/16 04:22:55;;;;;;;0.10;0.10;;;;;;;;;;5068777;28;20040;-60
2022/04/16 04:25:20;;;;;;;0.20;0.20;;;;;;;;;;5068546;28;20044;-60
2022/04/16 04:27:46;;;;;;;0.20;0.20;;;;;;;;;;5068177;28;20028;-60
2022/04/16 04:30:12;;;;;;;0.10;0.10;;;;;;;;;;5068450;28;20460;-60
2022/04/16 04:32:38;;;;;;;0.10;0.10;;;;;;;;;;5068867;28;20033;-61
2022/04/16 04:35:04;;;;;;;0.10;0.10;;;;;;;;;;5068645;28;20110;-61
2022/04/16 04:37:29;;;;;;;0.20;0.20;;;;;;;;;;5068309;28;20480;-60
2022/04/16 04:39:55;;;;;;;1.55;1.45;;;;;;;;;;5068479;28;20121;-61
2022/04/16 04:42:24;;;;;;;0.30;0.30;;;;;;;;;;5068116;28;20457;-60
2022/04/16 04:44:49;;;;;;;0.17;0.17;;;;;;;;;;5068528;28;20127;-60
2022/04/16 04:47:15;;;;;;;0.10;0.10;;;;;;;;;;5068296;28;20104;-61
2022/04/16 04:49:40;;;;;;;0.20;0.20;;;;;;;;;;5068599;28;20036;-61
2022/04/16 04:52:06;;;;;;;0.20;0.20;;;;;;;;;;5068229;28;20036;-60
2022/04/16 04:54:31;;;;;;;0.15;0.15;;;;;;;;;;5068186;28;20036;-60
2022/04/16 04:56:57;;;;;;;0.20;0.20;;;;;;;;;;5067820;28;20044;-61
2022/04/16 04:59:22;;;;;;;0.20;0.20;;;;;;;;;;5068081;28;20033;-60
2022/04/16 05:01:48;;;;;;;0.20;0.20;;;;;;;;;;5068317;28;20041;-60
2022/04/16 05:04:13;;;;;;;2.47;2.38;;;;;;;;;;5068015;28;20040;-61
2022/04/16 05:06:38;;;;;;;1.80;1.75;;;;;;;;;;5068348;28;20036;-61
2022/04/16 05:09:04;;;;;;;0.20;0.20;;;;;;;;;;5068118;28;20089;-61
2022/04/16 05:11:29;;;;;;;0.20;0.20;;;;;;;;;;5068277;28;20025;-62
2022/04/16 05:13:55;;;;;;;0.20;0.20;;;;;;;;;;5068086;28;20111;-60
2022/04/16 05:16:20;;;;;;;0.17;0.17;;;;;;;;;;5068137;28;20100;-61
2022/04/16 05:18:45;;;;;;;0.17;0.17;;;;;;;;;;5068825;28;20075;-61
2022/04/16 05:21:11;;;;;;;0.20;0.20;;;;;;;;;;5068332;28;20025;-60
2022/04/16 05:23:39;;;;;;;0.20;0.20;;;;;;;;;;5068126;28;20123;-60
2022/04/16 05:26:05;;;;;;;0.20;0.20;;;;;;;;;;5068075;28;20078;-60
2022/04/16 05:28:30;;;;;;;0.20;0.20;;;;;;;;;;5067996;28;20101;-60
2022/04/16 05:30:58;;;;;;;0.20;0.20;;;;;;;;;;5068174;28;20547;-60
2022/04/16 05:36:08;;;;;;;0.20;0.20;;;;;;;;;;5067845;28;20044;-61
2022/04/16 05:38:33;;;;;;;0.20;0.20;;;;;;;;;;5068045;28;20032;-63
2022/04/16 05:40:59;;;;;;;0.20;0.20;;;;;;;;;;5067832;28;20408;-60
2022/04/16 05:43:25;;;;;;;0.30;0.30;;;;;;;;;;5067855;28;20029;-60
2022/04/16 05:45:50;;;;;;;0.10;0.10;;;;;;;;;;5067598;28;20103;-60
2022/04/16 05:48:16;;;;;;;0.20;0.20;;;;;;;;;;5067577;28;20025;-62
2022/04/16 05:50:42;;;;;;;0.10;0.10;;;;;;;;;;5067793;28;20044;-61
2022/04/16 05:53:08;;;;;;;0.20;0.20;;;;;;;;;;5067735;28;20063;-60
2022/04/16 05:55:34;;;;;;;0.10;0.10;;;;;;;;;;5067585;28;20042;-61
2022/04/16 05:57:59;;;;;;;0.20;0.20;;;;;;;;;;5067578;28;20488;-60
2022/04/16 06:00:25;;;;;;;0.20;0.20;;;;;;;;;;5067614;28;20025;-60
2022/04/16 06:02:51;;;;;;;0.20;0.20;;;;;;;;;;5067822;28;20032;-60
2022/04/16 06:05:16;;;;;;;0.10;0.10;;;;;;;;;;5067817;28;20082;-60
2022/04/16 06:07:42;;;;;;;0.20;0.20;;;;;;;;;;5067766;28;20028;-60
2022/04/16 06:10:08;;;;;;;0.20;0.20;;;;;;;;;;5067469;28;20024;-60
2022/04/16 06:12:33;;;;;;;0.10;0.10;;;;;;;;;;5070906;28;20125;-59
2022/04/16 06:15:00;;;;;;;0.20;0.20;;;;;;;;;;5070968;28;20031;-60
2022/04/16 06:17:25;;;;;;;0.15;0.15;;;;;;;;;;5070886;28;20040;-59
2022/04/16 06:19:51;;;;;;;0.20;0.20;;;;;;;;;;5070922;28;20535;-59
2022/04/16 06:22:16;;;;;;;0.10;0.10;;;;;;;;;;5070524;28;20036;-61
2022/04/16 06:24:42;;;;;;;0.10;0.10;;;;;;;;;;5070788;28;20107;-61
2022/04/16 06:27:08;;;;;;;0.10;0.10;;;;;;;;;;5070675;28;20046;-60
2022/04/16 06:29:33;;;;;;;0.10;0.10;;;;;;;;;;5070594;28;20086;-60
2022/04/16 06:31:59;;;;;;;0.10;0.10;;;;;;;;;;5071213;28;20520;-62
2022/04/16 06:34:24;;;;;;;0.20;0.20;;;;;;;;;;5070535;28;20055;-64
2022/04/16 06:36:50;;;;;;;0.10;0.10;;;;;;;;;;5070694;28;20071;-63
2022/04/16 06:39:15;;;;;;;0.17;0.17;;;;;;;;;;5052807;28;20396;-64
2022/04/16 06:41:41;;;;;;;0.10;0.10;;;;;;;;;;5070524;28;20120;-64
2022/04/16 06:44:06;;;;;;;0.10;0.10;;;;;;;;;;5070322;28;20438;-64
2022/04/16 06:46:32;;;;;;;1.33;1.23;;;;;;;;;;5070624;28;20048;-64
2022/04/16 06:48:57;;;;;;;0.13;0.13;;;;;;;;;;5070766;28;20043;-63
2022/04/16 06:51:23;;;;;;;0.20;0.20;;;;;;;;;;5070264;28;20074;-64
2022/04/16 06:53:48;;;;;;;0.20;0.20;;;;;;;;;;5070268;28;20420;-63
2022/04/16 06:56:14;;;;;;;0.17;0.17;;;;;;;;;;5069893;28;20476;-63
2022/04/16 06:58:39;;;;;;;0.17;0.17;;;;;;;;;;5035431;28;20063;-65
2022/04/16 07:01:05;;;;;;;0.20;0.20;;;;;;;;;;5070337;28;20036;-64
2022/04/16 07:03:30;;;;;;;3.00;1.05;;;;;;;;;;5070464;28;20098;-63
2022/04/16 07:05:56;;;;;;;2.35;1.55;;;;;;;;;;5070544;28;20056;-66
2022/04/16 07:08:21;;;;;;;0.20;0.20;;;;;;;;;;5073198;28;20029;-64
2022/04/16 07:10:46;;;;;;;2.20;1.13;;;;;;;;;;5051774;28;20032;-63
2022/04/16 07:13:12;;;;;;;0.10;0.10;;;;;;;;;;5077891;28;20036;-64
2022/04/16 07:15:38;;;;;;;0.63;0.55;;;;;;;;;;5061795;28;20035;-64
2022/04/16 07:18:04;;;;;;;0.38;0.38;;;;;;;;;;5070532;28;20045;-64
2022/04/16 07:20:30;;;;;;;0.20;0.20;;;;;;;;;;5051895;28;20040;-67
2022/04/16 07:22:55;;;;;;;0.30;0.30;;;;;;;;;;5050984;28;20627;-65
2022/04/16 07:25:21;;;;;;;3.58;2.60;;;;;;;;;;5086392;28;20078;-64
2022/04/16 07:27:47;;;;;;;1.10;0.60;;;;;;;;;;5044037;28;20089;-65
2022/04/16 07:30:13;;;;;;;0.52;0.52;;;;;;;;;;5032956;28;20028;-67
2022/04/16 07:32:39;;;;;;;7.93;2.00;;;;;;;;;;5033985;28;20466;-63
2022/04/16 07:35:05;;;;;;;0.25;0.25;;;;;;;;;;5067655;28;20021;-63
2022/04/16 07:37:30;;;;;;;1.45;1.23;;;;;;;;;;5071031;28;20035;-64
2022/04/16 07:39:56;;;;;;;0.60;0.52;;;;;;;;;;5068861;28;20036;-65
2022/04/16 07:42:24;;;;;;;0.30;0.30;;;;;;;;;;5066385;28;20041;-64
2022/04/16 07:44:50;;;;;;;0.67;0.67;;;;;;;;;;5033742;28;20031;-63
2022/04/16 07:47:15;;;;;;;0.45;0.45;;;;;;;;;;5069190;28;20380;-64
2022/04/16 07:49:41;;;;;;;0.20;0.20;;;;;;;;;;5068266;28;20033;-67
2022/04/16 07:52:06;;;;;;;0.20;0.20;;;;;;;;;;5068552;28;20056;-63
2022/04/16 07:54:32;;;;;;;0.20;0.20;;;;;;;;;;5068118;28;20075;-64
2022/04/16 07:56:57;;;;;;;0.20;0.20;;;;;;;;;;5033906;28;20102;-65
2022/04/16 07:59:23;;;;;;;0.28;0.28;;;;;;;;;;5069372;28;20032;-63
2022/04/16 08:01:48;;;;;;;0.20;0.20;;;;;;;;;;5069184;28;20090;-63
2022/04/16 08:04:14;;;;;;;0.40;0.40;;;;;;;;;;5069324;28;20028;-63
2022/04/16 08:06:39;;;;;;;0.20;0.20;;;;;;;;;;5069314;28;20400;-66
2022/04/16 08:09:05;;;;;;;0.20;0.20;;;;;;;;;;5069583;28;20039;-64
2022/04/16 08:11:31;;;;;;;0.45;0.45;;;;;;;;;;5068335;28;20020;-63
2022/04/16 08:13:57;;;;;;;0.20;0.20;;;;;;;;;;5034314;28;20395;-63
2022/04/16 08:16:22;;;;;;;0.20;0.20;;;;;;;;;;5068852;28;20032;-66
2022/04/16 08:18:47;;;;;;;0.25;0.25;;;;;;;;;;5069319;28;20032;-63
2022/04/16 08:21:13;;;;;;;0.30;0.30;;;;;;;;;;5069038;28;20043;-64
2022/04/16 08:23:44;;;;;;;0.20;0.20;;;;;;;;;;5051290;28;20400;-64
2022/04/16 08:26:11;;;;;;;0.20;0.20;;;;;;;;;;5034181;28;20041;-64
2022/04/16 08:28:36;;;;;;;0.20;0.20;;;;;;;;;;5034150;28;20094;-65
2022/04/16 08:31:02;;;;;;;0.22;0.22;;;;;;;;;;5069188;28;20396;-63
2022/04/16 08:33:27;;;;;;;0.20;0.20;;;;;;;;;;5050728;28;20476;-64
2022/04/16 08:35:53;;;;;;;0.20;0.20;;;;;;;;;;5069122;28;20491;-63
2022/04/16 08:38:18;;;;;;;1.58;1.48;;;;;;;;;;5068532;28;20107;-64
2022/04/16 08:40:44;;;;;;;0.30;0.30;;;;;;;;;;5050425;28;20488;-64
2022/04/16 08:43:09;;;;;;;0.22;0.22;;;;;;;;;;5050897;28;20041;-64
2022/04/16 08:45:36;;;;;;;0.20;0.20;;;;;;;;;;5068769;28;20364;-63
2022/04/16 08:48:02;;;;;;;0.35;0.32;;;;;;;;;;5050695;28;20638;-65
2022/04/16 08:50:27;;;;;;;0.20;0.20;;;;;;;;;;5068584;28;20108;-64
2022/04/16 08:52:53;;;;;;;0.30;0.30;;;;;;;;;;5068563;28;20021;-64
2022/04/16 08:55:19;;;;;;;0.30;0.30;;;;;;;;;;5033747;28;20040;-64
2022/04/16 08:57:44;;;;;;;0.20;0.20;;;;;;;;;;5033948;28;20487;-64
2022/04/16 09:00:13;;;;;;;0.20;0.20;;;;;;;;;;5068139;28;20048;-59
2022/04/16 09:02:48;;;;;;;0.32;0.32;;;;;;;;;;5050904;28;20025;-59
2022/04/16 09:05:14;;;;;;;0.20;0.20;;;;;;;;;;5050742;28;20039;-60
2022/04/16 09:07:46;;;;;;;3.45;2.42;;;;;;;;;;5068616;28;20045;-61
2022/04/16 09:10:12;;;;;;;0.28;0.28;;;;;;;;;;5033886;28;20036;-62
2022/04/16 09:12:39;;;;;;;0.30;0.30;;;;;;;;;;5068339;28;20027;-60
2022/04/16 09:15:06;;;;;;;0.20;0.20;;;;;;;;;;5050257;28;20040;-61
2022/04/16 09:17:32;;;;;;;0.22;0.22;;;;;;;;;;5033809;28;20557;-60
2022/04/16 09:19:58;;;;;;;6.15;2.35;;;;;;;;;;5033617;28;20388;-60
2022/04/16 09:22:33;;;;;;;0.38;0.38;;;;;;;;;;5068124;28;20028;-59
2022/04/16 09:24:59;;;;;;;3.40;2.17;;;;;;;;;;5068214;28;20439;-60
2022/04/16 09:27:24;;;;;;;1.00;0.73;;;;;;;;;;5068611;28;20085;-60
2022/04/16 09:29:50;;;;;;;7.43;1.02;;;;;;;;;;5068444;28;20029;-63
2022/04/16 09:32:25;;;;;;;0.30;0.30;;;;;;;;;;5067945;28;20025;-62
2022/04/16 09:34:51;;;;;;;1.45;1.08;;;;;;;;;;5068118;28;20048;-61
2022/04/16 09:37:16;;;;;;;0.40;0.40;;;;;;;;;;5067738;28;20063;-61
2022/04/16 09:39:42;;;;;;;4.03;1.48;;;;;;;;;;5068095;28;20068;-63
2022/04/16 09:42:07;;;;;;;0.43;0.43;;;;;;;;;;5068034;28;20476;-61
2022/04/16 09:44:33;;;;;;;5.50;2.17;;;;;;;;;;5067830;28;20043;-60
2022/04/16 09:46:58;;;;;;;0.45;0.45;;;;;;;;;;5070052;28;20100;-60
2022/04/16 09:49:24;;;;;;;0.52;0.52;;;;;;;;;;5071557;28;20047;-61
2022/04/16 09:51:50;;;;;;;0.73;0.73;;;;;;;;;;5070804;28;20442;-60
2022/04/16 09:54:16;;;;;;;0.40;0.40;;;;;;;;;;5070962;28;20025;-60
2022/04/16 09:56:45;;;;;;;1.20;1.00;;;;;;;;;;5071041;28;20055;-63
2022/04/16 09:59:12;;;;;;;0.20;0.20;;;;;;;;;;5072707;28;20020;-60
2022/04/16 10:01:38;;;;;;;1.02;0.82;;;;;;;;;;5075200;28;20074;-60
2022/04/16 10:04:06;;;;;;;3.28;2.00;;;;;;;;;;5078908;28;20032;-60
2022/04/16 10:06:31;;;;;;;4.03;1.98;;;;;;;;;;5073363;28;20038;-60
2022/04/16 10:08:58;;;;;;;0.30;0.30;;;;;;;;;;5071546;28;20246;-59
2022/04/16 10:12:59;;;;;;;0.20;0.20;;;;;;;;;;5071627;28;20033;-60
2022/04/16 10:14:48;;;;;;;2.40;1.35;;;;;;;;;;5070267;28;20028;-59
2022/04/16 10:17:31;;;;;;;0.77;0.68;;;;;;;;;;5056427;28;20052;-59
2022/04/16 10:20:10;;;;;;;0.65;0.65;;;;;;;;;;5071138;28;20480;-60
2022/04/16 10:22:35;;;;;;;2.17;1.50;;;;;;;;;;5070803;28;20078;-60
2022/04/16 10:25:01;;;;;;;1.65;1.30;;;;;;;;;;5070882;28;20068;-60
2022/04/16 10:27:28;;;;;;;0.63;0.63;;;;;;;;;;5052622;28;20021;-59
2022/04/16 10:29:58;;;;;;;0.80;0.80;;;;;;;;;;5071040;28;20047;-59
2022/04/16 10:32:27;;;;;;;0.60;0.60;;;;;;;;;;5070365;28;20085;-60
2022/04/16 10:35:01;;;;;;;0.40;0.40;;;;;;;;;;5070617;28;20468;-60
2022/04/16 10:37:27;;;;;;;0.60;0.60;;;;;;;;;;5070546;28;20075;-59
2022/04/16 10:39:53;;;;;;;0.82;0.82;;;;;;;;;;5070610;28;20059;-60
2022/04/16 10:42:28;;;;;;;1.20;0.93;;;;;;;;;;5070670;28;20028;-60
2022/04/16 10:44:54;;;;;;;2.90;0.70;;;;;;;;;;5070478;28;20059;-61
2022/04/16 10:47:19;;;;;;;0.80;0.80;;;;;;;;;;5070539;28;20093;-60
2022/04/16 10:49:45;;;;;;;0.40;0.40;;;;;;;;;;5071219;28;20044;-60
2022/04/16 10:52:20;;;;;;;0.88;0.68;;;;;;;;;;5070258;28;20039;-60
2022/04/16 10:54:47;;;;;;;0.52;0.52;;;;;;;;;;5070439;28;20499;-60
2022/04/16 10:57:19;;;;;;;0.47;0.47;;;;;;;;;;5069920;28;20063;-60
2022/04/16 10:59:45;;;;;;;1.30;0.75;;;;;;;;;;5070621;28;20033;-60
2022/04/16 11:02:26;;;;;;;1.08;0.98;;;;;;;;;;5070013;28;20131;-61
2022/04/16 11:05:02;;;;;;;1.50;1.25;;;;;;;;;;5070091;28;20033;-61
2022/04/16 11:07:28;;;;;;;0.70;0.70;;;;;;;;;;5052259;28;20032;-60
2022/04/16 11:09:54;;;;;;;0.50;0.50;;;;;;;;;;5070092;28;20021;-61
2022/04/16 11:12:20;;;;;;;0.40;0.40;;;;;;;;;;5070523;28;20086;-60
2022/04/16 11:14:49;;;;;;;0.50;0.50;;;;;;;;;;5070488;28;20037;-60
2022/04/16 11:17:14;;;;;;;0.73;0.73;;;;;;;;;;5075971;28;20028;-61
2022/04/16 11:19:40;;;;;;;0.80;0.70;;;;;;;;;;5074130;28;20036;-60
2022/04/16 11:22:06;;;;;;;0.82;0.82;;;;;;;;;;5069592;28;20032;-62
2022/04/16 11:24:31;;;;;;;1.20;0.93;;;;;;;;;;5070236;28;20028;-60
2022/04/16 11:35:53;;;;;;;0.98;0.90;;;;;;;;;;5081111;28;20060;-63
2022/04/16 11:38:24;;;;;;;1.70;1.48;;;;;;;;;;5078595;28;20079;-65
2022/04/16 11:40:52;;;;;;;0.40;0.40;;;;;;;;;;5069052;28;20037;-64
2022/04/16 11:43:18;;;;;;;1.52;1.15;;;;;;;;;;5075435;28;20107;-65
2022/04/16 11:45:46;;;;;;;0.38;0.38;;;;;;;;;;5049288;28;20037;-65
2022/04/16 11:48:12;;;;;;;1.13;0.68;;;;;;;;;;5086840;28;20035;-67
2022/04/16 11:50:38;;;;;;;3.80;3.60;;;;;;;;;;5078599;28;20454;-66
2022/04/16 11:53:03;;;;;;;0.40;0.40;;;;;;;;;;5081902;28;20115;-67
2022/04/16 11:55:28;;;;;;;0.75;0.75;;;;;;;;;;5088924;28;20058;-65
2022/04/16 11:57:54;;;;;;;0.40;0.40;;;;;;;;;;5079725;28;20083;-63
2022/04/16 12:00:20;;;;;;;0.70;0.70;;;;;;;;;;5068663;28;20052;-64
2022/04/16 12:02:49;;;;;;;0.50;0.50;;;;;;;;;;5077273;28;20060;-65
2022/04/16 12:05:16;;;;;;;0.95;0.88;;;;;;;;;;5079301;28;20036;-66
2022/04/16 12:07:42;;;;;;;1.13;1.02;;;;;;;;;;5087197;28;20056;-65
2022/04/16 12:10:08;;;;;;;0.60;0.60;;;;;;;;;;5067202;28;20036;-66
2022/04/16 12:12:42;;;;;;;0.50;0.50;;;;;;;;;;5073826;28;20093;-65
2022/04/16 12:15:07;;;;;;;0.50;0.50;;;;;;;;;;5082167;28;20036;-67
2022/04/16 12:17:37;;;;;;;4.78;1.38;;;;;;;;;;5075997;28;20037;-66
2022/04/16 12:20:05;;;;;;;0.82;0.80;;;;;;;;;;5066439;28;20460;-63
2022/04/16 12:22:31;;;;;;;1.38;1.20;;;;;;;;;;5067822;28;20058;-62
2022/04/16 12:25:06;;;;;;;4.25;2.00;;;;;;;;;;5067627;28;20028;-63
2022/04/16 12:27:32;;;;;;;0.50;0.50;;;;;;;;;;5069182;28;20040;-63
2022/04/16 12:29:59;;;;;;;0.50;0.50;;;;;;;;;;5068578;28;20399;-65
2022/04/16 12:32:27;;;;;;;0.50;0.50;;;;;;;;;;5068486;28;20028;-64
2022/04/16 12:34:53;;;;;;;0.95;0.80;;;;;;;;;;5034153;28;20126;-63
2022/04/16 12:37:19;;;;;;;5.10;1.95;;;;;;;;;;5063324;28;20137;-63
2022/04/16 12:39:44;;;;;;;0.40;0.40;;;;;;;;;;5072955;28;20032;-65
2022/04/16 12:42:09;;;;;;;0.60;0.60;;;;;;;;;;5079277;28;20066;-65
2022/04/16 12:44:35;;;;;;;0.50;0.50;;;;;;;;;;5068683;28;20476;-65
2022/04/16 12:47:00;;;;;;;1.60;1.27;;;;;;;;;;5068522;28;20040;-65
2022/04/16 12:49:26;;;;;;;0.50;0.50;;;;;;;;;;5068177;28;20502;-65
2022/04/16 12:51:51;;;;;;;0.50;0.50;;;;;;;;;;5067834;28;20082;-65
2022/04/16 12:54:17;;;;;;;0.40;0.40;;;;;;;;;;5068200;28;20020;-64
2022/04/16 12:56:47;;;;;;;0.50;0.50;;;;;;;;;;5084676;28;20470;-66
2022/04/16 12:59:15;;;;;;;2.80;1.50;;;;;;;;;;5068069;28;20119;-64
2022/04/16 13:01:40;;;;;;;2.17;0.87;;;;;;;;;;5068482;28;20036;-63
2022/04/16 13:04:06;;;;;;;2.10;1.15;;;;;;;;;;5067323;28;20349;-62
2022/04/16 13:06:31;;;;;;;1.85;1.55;;;;;;;;;;5067660;28;20365;-64
2022/04/16 13:09:00;;;;;;;0.40;0.40;;;;;;;;;;5067794;28;20094;-65
2022/04/16 13:11:26;;;;;;;1.40;1.08;;;;;;;;;;5067779;28;20165;-65
2022/04/16 13:13:51;;;;;;;0.43;0.43;;;;;;;;;;5085981;28;20560;-65
2022/04/16 13:16:17;;;;;;;1.15;1.05;;;;;;;;;;5066912;28;20037;-62
2022/04/16 13:18:42;;;;;;;0.85;0.68;;;;;;;;;;5066083;28;20033;-64
2022/04/16 13:21:08;;;;;;;1.38;1.15;;;;;;;;;;5049360;28;20400;-61
2022/04/16 13:23:33;;;;;;;0.30;0.30;;;;;;;;;;5071101;28;20032;-61
2022/04/16 13:25:59;;;;;;;0.35;0.35;;;;;;;;;;5072298;28;20063;-62
2022/04/16 13:28:27;;;;;;;0.40;0.40;;;;;;;;;;5056673;28;20033;-61
2022/04/16 13:30:53;;;;;;;0.73;0.65;;;;;;;;;;5073156;28;20027;-61
2022/04/16 13:33:18;;;;;;;0.77;0.70;;;;;;;;;;5052702;28;20395;-61
2022/04/16 13:35:44;;;;;;;0.40;0.40;;;;;;;;;;5036772;28;20046;-62
2022/04/16 13:38:09;;;;;;;0.70;0.65;;;;;;;;;;5071445;28;20051;-62
2022/04/16 13:43:19;;;;;;;0.60;0.60;;;;;;;;;;5071478;28;20036;-64
2022/04/16 13:45:44;;;;;;;4.57;1.30;;;;;;;;;;5071266;28;20025;-62
2022/04/16 13:48:11;;;;;;;0.80;0.80;;;;;;;;;;5071609;28;20043;-62
2022/04/16 13:50:36;;;;;;;0.90;0.73;;;;;;;;;;5070449;28;20121;-61
2022/04/16 13:53:02;;;;;;;0.50;0.50;;;;;;;;;;5071344;28;20113;-63
2022/04/16 13:55:27;;;;;;;0.50;0.50;;;;;;;;;;5071608;28;20376;-64
2022/04/16 13:57:53;;;;;;;0.70;0.70;;;;;;;;;;5052636;28;20068;-61
2022/04/16 14:00:18;;;;;;;1.50;1.40;;;;;;;;;;5070723;28;20035;-63
2022/04/16 14:02:44;;;;;;;1.48;1.05;;;;;;;;;;5070918;28;20027;-62
2022/04/16 14:07:54;;;;;;;1.80;1.40;;;;;;;;;;5070428;28;20036;-61
2022/04/16 14:10:19;;;;;;;1.52;1.17;;;;;;;;;;5068923;28;20040;-62
2022/04/16 14:12:45;;;;;;;1.00;0.75;;;;;;;;;;5070321;28;20040;-62
2022/04/16 14:15:11;;;;;;;0.82;0.70;;;;;;;;;;5050973;28;20039;-61
2022/04/16 14:17:36;;;;;;;0.63;0.55;;;;;;;;;;5033993;28;20028;-61
2022/04/16 14:20:02;;;;;;;0.30;0.30;;;;;;;;;;5068820;28;20099;-61
2022/04/16 14:22:28;;;;;;;2.22;1.13;;;;;;;;;;5032635;28;20040;-62
2022/04/16 14:24:53;;;;;;;2.75;1.00;;;;;;;;;;5067728;28;20121;-63
2022/04/16 14:27:19;;;;;;;0.70;0.65;;;;;;;;;;5067646;28;20466;-61
2022/04/16 14:29:44;;;;;;;0.30;0.30;;;;;;;;;;5068181;28;20044;-62
2022/04/16 14:32:10;;;;;;;0.25;0.25;;;;;;;;;;5034325;28;20035;-62
2022/04/16 14:34:35;;;;;;;0.40;0.40;;;;;;;;;;5069353;28;20486;-61
2022/04/16 14:37:01;;;;;;;0.30;0.30;;;;;;;;;;5070064;28;20033;-62
2022/04/16 14:39:27;;;;;;;1.35;0.93;;;;;;;;;;5070659;28;20055;-62
2022/04/16 14:41:53;;;;;;;0.80;0.80;;;;;;;;;;5070402;28;20058;-63
2022/04/16 14:44:18;;;;;;;0.30;0.30;;;;;;;;;;5069863;28;20024;-63
2022/04/16 14:46:44;;;;;;;0.30;0.30;;;;;;;;;;5070585;28;20051;-62
2022/04/16 14:49:10;;;;;;;0.68;0.68;;;;;;;;;;5035608;28;20578;-62
2022/04/16 14:51:39;;;;;;;0.50;0.50;;;;;;;;;;5036033;28;20039;-62
2022/04/16 14:54:05;;;;;;;0.30;0.30;;;;;;;;;;5070447;28;20085;-62
2022/04/16 14:56:31;;;;;;;0.40;0.40;;;;;;;;;;5052094;28;20044;-62
2022/04/16 14:58:58;;;;;;;0.65;0.57;;;;;;;;;;5069167;28;20036;-61
2022/04/16 15:01:23;;;;;;;1.02;0.80;;;;;;;;;;5050561;28;20081;-65
2022/04/16 15:03:49;;;;;;;0.20;0.20;;;;;;;;;;5050397;28;20157;-64
2022/04/16 15:06:15;;;;;;;0.60;0.60;;;;;;;;;;5068699;28;20033;-63